Banff, United Kingdom
Current Conditions -  °F | °C
As of 5:50 PM on Wednesday 26 Nov 2014 (Local Time) from EGQS Reporting Station
Broken Clouds Broken Clouds  
Wind Chill: 39°   Ceiling: 4600
Heat Index: 43°   Visibility: 6mi
Dew Point: 36°   Wind: 6mph
Humidity: 76%   Direction: 110°ESE
Pressure: 29.88"   Gusts: NA
Location:  57.66°N, 2.53°W
Report Text: EGQS 261750Z 11005KT 9999 BKN046 06/02 Q1012 BLU NOSIG
Loading
Personal Weather Stations






























Interactive Weather Map New forecast layout! Learn more

10-Day Weather Forecast

Advertisements
Track Severe Weather on mobile